Time;durP1;ratioP1;P1;durP2;ratioP2;P2;SDS_P1;SDS_P2;PMS_P1;PMS_P2;Temp;Humidity;BMP_temperature;BMP_pressure;BME280_temperature;BME280_humidity;BME280_pressure;Samples;Min_cycle;Max_cycle;Signal;HPM_P1;HPM_P2
2023/12/30 00:00:19;;;;;;;0.87;0.40;;;7.80;99.90;;;;;;5036544;28;20445;-43
2023/12/30 00:02:45;;;;;;;3.90;0.75;;;7.80;99.90;;;;;;5033353;28;20029;-40
2023/12/30 00:05:11;;;;;;;2.78;1.08;;;7.70;99.90;;;;;;5033052;28;20083;-41
2023/12/30 00:07:36;;;;;;;9.20;1.33;;;7.70;99.90;;;;;;5034930;28;20425;-43
2023/12/30 00:10:02;;;;;;;2.80;0.82;;;7.70;99.90;;;;;;5038694;28;20021;-42
2023/12/30 00:12:28;;;;;;;6.00;0.68;;;7.70;99.90;;;;;;5038898;28;20037;-40
2023/12/30 00:14:54;;;;;;;9.80;1.33;;;7.60;99.90;;;;;;5037302;28;20478;-39
2023/12/30 00:17:19;;;;;;;5.65;0.70;;;7.70;99.90;;;;;;5038037;28;20050;-43
2023/12/30 00:19:46;;;;;;;7.70;0.98;;;7.70;99.90;;;;;;5038883;28;20025;-41
2023/12/30 00:22:12;;;;;;;5.18;0.77;;;7.70;99.90;;;;;;5038157;28;20485;-40
2023/12/30 00:24:38;;;;;;;7.03;1.10;;;7.70;99.90;;;;;;5034783;28;20033;-41
2023/12/30 00:27:03;;;;;;;2.10;0.77;;;7.70;99.90;;;;;;5034090;28;20056;-39
2023/12/30 00:29:29;;;;;;;10.13;1.15;;;7.70;99.90;;;;;;5019282;28;20050;-42
2023/12/30 00:31:55;;;;;;;6.47;0.88;;;7.70;99.90;;;;;;5022911;28;20355;-40
2023/12/30 00:34:21;;;;;;;5.00;1.15;;;7.70;99.90;;;;;;5036623;28;20029;-42
2023/12/30 00:36:47;;;;;;;2.53;0.77;;;7.70;99.90;;;;;;5036314;28;20083;-43
2023/12/30 00:39:12;;;;;;;8.38;0.73;;;7.70;99.90;;;;;;5034967;28;20029;-41
2023/12/30 00:41:38;;;;;;;6.40;1.23;;;7.70;99.90;;;;;;5034773;28;20067;-46
2023/12/30 00:44:04;;;;;;;5.28;1.08;;;7.60;99.90;;;;;;5035218;28;20025;-44
2023/12/30 00:46:29;;;;;;;3.30;1.15;;;7.60;99.90;;;;;;5028496;28;20049;-43
2023/12/30 00:48:55;;;;;;;12.63;1.10;;;7.60;99.90;;;;;;5033670;28;20452;-42
2023/12/30 00:51:21;;;;;;;9.18;1.58;;;7.60;99.90;;;;;;5035194;28;20029;-44
2023/12/30 00:53:46;;;;;;;9.35;0.90;;;7.60;99.90;;;;;;5033551;28;20033;-44
2023/12/30 00:56:12;;;;;;;4.30;1.80;;;7.50;99.90;;;;;;5034108;28;20029;-42
2023/12/30 00:58:37;;;;;;;6.10;0.82;;;7.50;99.90;;;;;;5034016;28;20537;-43
2023/12/30 01:01:03;;;;;;;9.43;2.00;;;7.40;99.90;;;;;;5034688;28;20048;-44
2023/12/30 01:03:29;;;;;;;8.75;1.05;;;7.50;99.90;;;;;;5034394;28;20025;-42
2023/12/30 01:05:54;;;;;;;7.25;0.60;;;7.40;99.90;;;;;;5033101;28;20445;-45
2023/12/30 01:08:20;;;;;;;3.55;0.50;;;7.40;99.90;;;;;;5015548;28;20048;-44
2023/12/30 01:10:46;;;;;;;3.38;0.40;;;7.40;99.90;;;;;;5018467;28;20033;-45
2023/12/30 01:13:11;;;;;;;8.95;1.38;;;7.40;99.90;;;;;;5034728;28;20480;-43
2023/12/30 01:15:37;;;;;;;5.50;0.63;;;7.40;99.90;;;;;;5032981;28;20502;-42
2023/12/30 01:18:03;;;;;;;5.50;0.90;;;7.40;99.90;;;;;;5033784;28;20410;-43
2023/12/30 01:20:30;;;;;;;5.25;1.23;;;7.40;99.90;;;;;;5034192;28;20060;-44
2023/12/30 01:22:56;;;;;;;3.13;0.63;;;7.40;99.90;;;;;;5022864;28;20497;-45
2023/12/30 01:25:21;;;;;;;7.43;1.00;;;7.30;99.90;;;;;;5034055;28;20021;-43
2023/12/30 01:27:47;;;;;;;7.65;0.57;;;7.40;99.90;;;;;;5034664;28;20030;-44
2023/12/30 01:30:13;;;;;;;8.93;2.30;;;7.30;99.90;;;;;;5034397;28;20030;-41
2023/12/30 01:32:38;;;;;;;2.08;0.93;;;7.30;99.90;;;;;;5033513;28;20397;-42
2023/12/30 01:35:04;;;;;;;2.33;0.57;;;7.30;99.90;;;;;;5034391;28;20437;-50
2023/12/30 01:37:30;;;;;;;3.70;0.70;;;7.30;99.90;;;;;;5034086;28;20390;-43
2023/12/30 01:39:56;;;;;;;1.80;0.52;;;7.30;99.90;;;;;;5028441;28;20034;-46
2023/12/30 01:42:22;;;;;;;5.32;0.93;;;7.30;99.90;;;;;;5026764;28;20482;-44
2023/12/30 01:44:47;;;;;;;7.15;0.70;;;7.20;99.90;;;;;;5034297;28;20389;-44
2023/12/30 01:47:13;;;;;;;5.50;0.77;;;7.30;99.90;;;;;;5033792;28;20100;-49
2023/12/30 01:49:39;;;;;;;8.55;0.70;;;7.20;99.90;;;;;;5033612;28;20020;-42
2023/12/30 01:52:05;;;;;;;17.17;2.78;;;7.20;99.90;;;;;;5032911;28;20433;-44
2023/12/30 01:54:31;;;;;;;6.40;1.08;;;7.20;99.90;;;;;;5033167;28;20079;-41
2023/12/30 01:56:59;;;;;;;3.55;0.80;;;7.20;99.90;;;;;;5032327;28;20120;-43
2023/12/30 01:59:26;;;;;;;1.25;0.20;;;7.30;99.90;;;;;;5020402;28;20025;-42
2023/12/30 02:01:53;;;;;;;9.88;1.45;;;7.20;99.90;;;;;;5032554;28;20124;-44
2023/12/30 02:04:19;;;;;;;6.30;1.15;;;7.20;99.90;;;;;;5032190;28;20088;-44
2023/12/30 02:06:45;;;;;;;5.75;0.93;;;7.20;99.90;;;;;;5032093;28;20425;-46
2023/12/30 02:09:10;;;;;;;4.88;0.80;;;7.20;99.90;;;;;;5032405;28;20018;-42
2023/12/30 02:11:37;;;;;;;6.72;0.75;;;7.20;99.90;;;;;;5033394;28;20021;-40
2023/12/30 02:14:03;;;;;;;5.40;1.42;;;7.20;99.90;;;;;;5033400;28;20548;-41
2023/12/30 02:16:28;;;;;;;4.95;0.38;;;7.20;99.90;;;;;;5033014;28;20132;-44
2023/12/30 02:18:54;;;;;;;2.30;0.60;;;7.20;99.90;;;;;;5033511;28;20402;-43
2023/12/30 02:21:20;;;;;;;3.60;0.55;;;7.20;99.90;;;;;;5028038;28;20038;-42
2023/12/30 02:23:54;;;;;;;7.95;0.82;;;7.20;99.90;;;;;;5028016;28;20025;-42
2023/12/30 02:26:21;;;;;;;3.05;1.00;;;7.10;99.90;;;;;;5033452;28;20032;-45
2023/12/30 02:28:46;;;;;;;8.85;1.20;;;7.10;99.90;;;;;;5033325;28;20029;-41
2023/12/30 02:31:12;;;;;;;7.88;0.60;;;7.20;99.90;;;;;;5033567;28;20039;-45
2023/12/30 02:33:37;;;;;;;6.82;1.05;;;7.20;99.90;;;;;;5032496;28;20025;-42
2023/12/30 02:36:03;;;;;;;5.35;0.77;;;7.20;99.90;;;;;;5032813;28;20083;-43
2023/12/30 02:38:29;;;;;;;10.38;0.98;;;7.20;99.90;;;;;;5032253;28;20459;-45
2023/12/30 02:40:54;;;;;;;6.93;0.60;;;7.20;99.90;;;;;;5031690;28;20112;-41
2023/12/30 02:43:21;;;;;;;10.73;1.23;;;7.20;99.90;;;;;;5032882;28;20032;-40
2023/12/30 02:45:47;;;;;;;8.25;0.85;;;7.10;99.90;;;;;;5032846;28;20025;-44
2023/12/30 02:48:12;;;;;;;9.00;0.82;;;7.10;99.90;;;;;;5033076;28;20101;-41
2023/12/30 02:50:38;;;;;;;8.85;1.02;;;7.10;99.90;;;;;;5031835;28;20030;-39
2023/12/30 02:53:03;;;;;;;4.40;0.63;;;7.10;99.90;;;;;;5032831;28;20029;-41
2023/12/30 02:55:29;;;;;;;0.82;0.60;;;7.10;99.90;;;;;;5032555;28;20368;-44
2023/12/30 02:57:55;;;;;;;11.68;0.80;;;7.10;99.90;;;;;;5032601;28;20453;-41
2023/12/30 03:00:20;;;;;;;11.32;1.05;;;7.10;99.90;;;;;;5032320;28;20040;-44
2023/12/30 03:02:47;;;;;;;8.18;1.10;;;7.10;99.90;;;;;;5032894;28;20108;-43
2023/12/30 03:05:13;;;;;;;9.35;0.80;;;7.10;99.90;;;;;;5029629;28;20474;-41
2023/12/30 03:07:39;;;;;;;9.27;0.88;;;7.10;99.90;;;;;;5026880;28;20037;-49
2023/12/30 03:10:05;;;;;;;15.35;2.20;;;7.10;99.90;;;;;;5032569;28;20505;-53
2023/12/30 03:12:30;;;;;;;9.88;0.70;;;7.10;99.90;;;;;;5032110;28;20033;-49
2023/12/30 03:14:56;;;;;;;7.60;0.60;;;7.10;99.90;;;;;;5032166;28;20029;-55
2023/12/30 03:17:22;;;;;;;11.93;0.90;;;7.10;99.90;;;;;;5032735;28;20061;-53
2023/12/30 03:19:47;;;;;;;3.30;0.45;;;7.10;99.90;;;;;;5032276;28;20044;-53
2023/12/30 03:22:13;;;;;;;8.88;0.88;;;7.10;99.90;;;;;;5032538;28;20036;-53
2023/12/30 03:24:39;;;;;;;6.18;0.88;;;7.00;99.90;;;;;;5032280;28;20474;-53
2023/12/30 03:27:04;;;;;;;1.27;0.88;;;7.00;99.90;;;;;;5032759;28;20018;-53
2023/12/30 03:29:30;;;;;;;6.30;0.77;;;7.00;99.90;;;;;;5032192;28;20026;-53
2023/12/30 03:31:55;;;;;;;4.22;0.52;;;6.90;99.90;;;;;;5032453;28;20013;-53
2023/12/30 03:34:21;;;;;;;6.32;1.15;;;6.90;99.90;;;;;;5032699;28;20083;-54
2023/12/30 03:36:47;;;;;;;8.70;1.23;;;6.80;99.90;;;;;;5032419;28;20030;-52
2023/12/30 03:39:14;;;;;;;12.32;0.85;;;6.80;99.90;;;;;;5031951;28;20390;-52
2023/12/30 03:41:39;;;;;;;6.45;0.60;;;6.80;99.90;;;;;;5029934;28;20022;-52
2023/12/30 03:44:05;;;;;;;4.93;1.08;;;6.90;99.90;;;;;;5030191;28;20022;-55
2023/12/30 03:46:30;;;;;;;7.05;1.05;;;6.90;99.90;;;;;;5031718;28;20497;-52
2023/12/30 03:48:56;;;;;;;4.13;1.15;;;6.80;99.90;;;;;;5031368;28;20436;-52
2023/12/30 03:51:22;;;;;;;5.05;0.77;;;6.80;99.90;;;;;;5032522;28;20025;-41
2023/12/30 03:53:47;;;;;;;4.53;1.35;;;6.80;99.90;;;;;;5031985;28;20164;-45
2023/12/30 03:56:13;;;;;;;7.65;1.02;;;6.80;99.90;;;;;;5032301;28;20018;-42
2023/12/30 03:58:39;;;;;;;9.68;0.90;;;6.80;99.90;;;;;;5031527;28;20021;-40
2023/12/30 04:01:05;;;;;;;3.17;0.57;;;6.80;99.90;;;;;;5031495;28;20367;-43
2023/12/30 04:03:30;;;;;;;10.05;0.98;;;6.80;99.90;;;;;;5032187;28;20076;-40
2023/12/30 04:05:56;;;;;;;10.77;0.80;;;6.80;99.90;;;;;;5032454;28;20025;-39
2023/12/30 04:08:22;;;;;;;6.95;1.52;;;6.80;99.90;;;;;;5031827;28;20026;-54
2023/12/30 04:10:47;;;;;;;2.45;0.85;;;6.80;99.90;;;;;;5030659;28;20125;-52
2023/12/30 04:13:13;;;;;;;4.20;0.65;;;6.80;99.90;;;;;;5034255;28;20451;-53
2023/12/30 04:15:38;;;;;;;6.82;0.70;;;6.80;99.90;;;;;;5036188;28;20104;-52
2023/12/30 04:18:04;;;;;;;7.00;1.30;;;6.80;99.90;;;;;;5034297;28;20041;-53
2023/12/30 04:20:30;;;;;;;7.18;0.63;;;6.80;99.90;;;;;;5035294;28;20087;-53
2023/12/30 04:22:56;;;;;;;8.23;1.00;;;6.70;99.90;;;;;;5034635;28;20474;-53
2023/12/30 04:25:22;;;;;;;8.05;1.23;;;6.70;99.90;;;;;;5036165;28;20026;-53
2023/12/30 04:27:48;;;;;;;3.90;1.00;;;6.70;99.90;;;;;;5035350;28;20577;-52
2023/12/30 04:30:13;;;;;;;4.60;0.75;;;6.70;99.90;;;;;;5033338;28;20048;-53
2023/12/30 04:32:39;;;;;;;6.28;0.82;;;6.70;99.90;;;;;;5035486;28;20033;-52
2023/12/30 04:35:05;;;;;;;3.80;0.50;;;6.60;99.90;;;;;;5035706;28;20070;-53
2023/12/30 04:37:31;;;;;;;9.18;1.48;;;6.60;99.90;;;;;;5035308;28;20462;-52
2023/12/30 04:39:56;;;;;;;3.15;0.63;;;6.60;99.90;;;;;;5034803;28;20025;-52
2023/12/30 04:42:22;;;;;;;2.20;0.50;;;6.60;99.90;;;;;;5035089;28;20032;-51
2023/12/30 04:44:48;;;;;;;6.22;1.10;;;6.60;99.90;;;;;;5035564;28;20105;-52
2023/12/30 04:47:13;;;;;;;5.50;0.30;;;6.60;99.90;;;;;;5035242;28;20025;-59
2023/12/30 04:49:39;;;;;;;9.90;0.90;;;6.60;99.90;;;;;;5034678;28;20026;-52
2023/12/30 04:52:05;;;;;;;8.25;0.95;;;6.60;99.90;;;;;;5035166;28;20027;-54
2023/12/30 04:54:31;;;;;;;5.40;0.65;;;6.50;99.90;;;;;;5034551;28;20481;-54
2023/12/30 04:56:56;;;;;;;8.82;2.33;;;6.50;99.90;;;;;;5035017;28;20075;-53
2023/12/30 04:59:22;;;;;;;3.60;1.00;;;6.50;99.90;;;;;;5035294;28;20029;-53
2023/12/30 05:01:48;;;;;;;10.00;1.10;;;6.50;99.90;;;;;;5034716;28;20043;-53
2023/12/30 05:04:13;;;;;;;4.25;0.65;;;6.50;99.90;;;;;;5034913;28;20021;-53
2023/12/30 05:06:39;;;;;;;2.85;0.95;;;6.40;99.90;;;;;;5035135;28;20029;-52
2023/12/30 05:09:05;;;;;;;2.80;0.50;;;6.40;99.90;;;;;;5034636;28;20494;-53
2023/12/30 05:11:31;;;;;;;8.30;1.05;;;6.40;99.90;;;;;;5034440;28;20547;-53
2023/12/30 05:13:56;;;;;;;6.30;0.85;;;6.40;99.90;;;;;;5034323;28;20033;-52
2023/12/30 05:16:22;;;;;;;5.30;1.00;;;6.40;99.90;;;;;;5034515;28;20125;-56
2023/12/30 05:18:48;;;;;;;6.18;1.23;;;6.40;99.90;;;;;;5034349;28;20743;-53
2023/12/30 05:21:15;;;;;;;5.15;1.55;;;6.40;99.90;;;;;;5034611;28;20445;-52
2023/12/30 05:23:42;;;;;;;10.98;0.52;;;6.30;99.90;;;;;;5033950;28;20044;-52
2023/12/30 05:26:09;;;;;;;3.70;0.63;;;6.30;99.90;;;;;;5034413;28;20027;-53
2023/12/30 05:28:35;;;;;;;1.45;0.95;;;6.30;99.90;;;;;;5032632;28;20025;-51
2023/12/30 05:31:01;;;;;;;20.15;1.92;;;6.40;99.90;;;;;;5033510;28;20025;-52
2023/12/30 05:33:27;;;;;;;11.90;1.38;;;6.30;99.90;;;;;;5034483;28;20029;-54
2023/12/30 05:35:52;;;;;;;5.60;0.80;;;6.30;99.90;;;;;;5016987;28;20057;-53
2023/12/30 05:38:18;;;;;;;5.13;0.98;;;6.30;99.90;;;;;;5020282;28;20068;-51
2023/12/30 05:40:44;;;;;;;6.30;1.05;;;6.30;99.90;;;;;;5032782;28;20444;-56
2023/12/30 05:43:09;;;;;;;7.85;0.77;;;6.30;99.90;;;;;;5034399;28;20026;-53
2023/12/30 05:45:35;;;;;;;5.15;0.70;;;6.30;99.90;;;;;;5034449;28;20386;-53
2023/12/30 05:48:02;;;;;;;4.97;1.10;;;6.30;99.90;;;;;;5031794;28;20022;-52
2023/12/30 05:50:28;;;;;;;4.82;1.38;;;6.30;99.90;;;;;;5065562;28;20482;-51
2023/12/30 05:52:54;;;;;;;8.88;0.85;;;6.30;99.90;;;;;;5034067;28;20025;-52
2023/12/30 05:55:20;;;;;;;4.25;0.80;;;6.30;99.90;;;;;;5034154;28;20130;-53
2023/12/30 05:57:46;;;;;;;12.02;0.90;;;6.30;99.90;;;;;;5027872;28;20026;-54
2023/12/30 06:00:13;;;;;;;8.88;1.45;;;6.20;99.90;;;;;;5028025;28;20033;-53
2023/12/30 06:02:40;;;;;;;5.35;0.82;;;6.20;99.90;;;;;;5034308;28;20391;-41
2023/12/30 06:05:06;;;;;;;11.43;0.73;;;6.20;99.90;;;;;;5031686;28;20492;-41
2023/12/30 06:07:31;;;;;;;8.32;0.73;;;6.20;99.90;;;;;;5033582;28;20470;-39
2023/12/30 06:09:57;;;;;;;11.07;0.90;;;6.30;99.90;;;;;;5033532;28;20111;-41
2023/12/30 06:12:23;;;;;;;11.13;0.68;;;6.20;99.90;;;;;;5033565;28;20037;-41
2023/12/30 06:14:49;;;;;;;2.08;0.60;;;6.30;99.90;;;;;;5034153;28;20029;-41
2023/12/30 06:17:15;;;;;;;8.02;0.85;;;6.30;99.90;;;;;;5033076;28;20034;-40
2023/12/30 06:19:40;;;;;;;9.07;1.20;;;6.30;99.90;;;;;;5033506;28;20080;-40
2023/12/30 06:22:06;;;;;;;13.77;1.15;;;6.30;99.90;;;;;;5033527;28;20026;-40
2023/12/30 06:24:33;;;;;;;12.23;1.90;;;6.40;99.90;;;;;;5033599;28;20096;-41
2023/12/30 06:26:59;;;;;;;6.90;1.80;;;6.40;99.90;;;;;;5032871;28;20025;-40
2023/12/30 06:29:28;;;;;;;12.55;1.50;;;6.40;99.90;;;;;;5031957;28;20514;-40
2023/12/30 06:31:54;;;;;;;3.75;1.25;;;6.40;99.90;;;;;;5030751;28;20156;-38
2023/12/30 06:34:20;;;;;;;4.95;0.98;;;6.40;99.90;;;;;;5033034;28;20481;-38
2023/12/30 06:36:46;;;;;;;4.28;1.05;;;6.40;99.90;;;;;;5032224;28;20105;-41
2023/12/30 06:39:17;;;;;;;14.38;1.85;;;6.40;99.90;;;;;;5032609;28;20028;-42
2023/12/30 06:41:43;;;;;;;17.45;1.40;;;6.40;99.90;;;;;;5013676;28;20505;-41
2023/12/30 06:44:08;;;;;;;3.15;0.90;;;6.40;99.90;;;;;;5028183;28;20021;-40
2023/12/30 06:46:34;;;;;;;8.70;1.10;;;6.40;99.90;;;;;;5033042;28;20033;-39
2023/12/30 06:49:00;;;;;;;8.85;1.23;;;6.30;99.90;;;;;;5032918;28;20485;-40
2023/12/30 06:51:27;;;;;;;7.22;0.88;;;6.40;99.90;;;;;;5033261;28;20091;-40
2023/12/30 06:53:53;;;;;;;10.52;1.10;;;6.40;99.90;;;;;;5031237;28;20363;-39
2023/12/30 06:56:19;;;;;;;2.90;1.13;;;6.40;99.90;;;;;;5032194;28;20458;-41
2023/12/30 06:58:45;;;;;;;7.53;1.05;;;6.30;99.90;;;;;;5032109;28;20044;-44
2023/12/30 07:01:12;;;;;;;11.80;0.88;;;6.30;99.90;;;;;;5032314;28;20425;-41
2023/12/30 07:03:38;;;;;;;5.70;1.02;;;6.30;99.90;;;;;;5032534;28;20033;-40
2023/12/30 07:06:04;;;;;;;10.35;0.88;;;6.30;99.90;;;;;;5033027;28;20037;-43
2023/12/30 07:08:29;;;;;;;20.60;0.80;;;6.30;99.90;;;;;;5032258;28;20030;-42
2023/12/30 07:10:55;;;;;;;8.43;0.90;;;6.40;99.90;;;;;;5031261;28;20029;-40
2023/12/30 07:13:21;;;;;;;3.83;0.55;;;6.40;99.90;;;;;;5031893;28;20034;-39
2023/12/30 07:15:47;;;;;;;4.85;0.85;;;6.50;99.90;;;;;;5032665;28;20033;-44
2023/12/30 07:18:13;;;;;;;27.23;2.22;;;6.50;99.90;;;;;;5032056;28;20537;-40
2023/12/30 07:20:39;;;;;;;5.75;1.35;;;6.60;99.90;;;;;;5032260;28;20108;-39
2023/12/30 07:23:05;;;;;;;11.35;0.70;;;6.60;99.90;;;;;;5032806;28;20418;-41
2023/12/30 07:25:31;;;;;;;4.10;1.17;;;6.60;99.90;;;;;;5032897;28;20504;-39
2023/12/30 07:27:57;;;;;;;2.30;0.95;;;6.60;99.90;;;;;;5032612;28;20060;-40
2023/12/30 07:30:23;;;;;;;10.40;1.70;;;6.70;99.90;;;;;;5031002;28;20085;-39
2023/12/30 07:32:48;;;;;;;4.47;0.65;;;6.70;99.90;;;;;;5030509;28;20477;-53
2023/12/30 07:35:14;;;;;;;7.47;1.08;;;6.70;99.90;;;;;;5031031;28;20112;-53
2023/12/30 07:37:40;;;;;;;4.80;1.05;;;6.80;99.90;;;;;;5032340;28;20030;-54
2023/12/30 07:40:06;;;;;;;10.05;1.02;;;6.80;99.90;;;;;;5032311;28;20423;-52
2023/12/30 07:42:32;;;;;;;3.72;0.80;;;6.90;99.90;;;;;;5032211;28;20497;-52
2023/12/30 07:44:58;;;;;;;3.28;0.60;;;7.00;99.90;;;;;;5032409;28;20029;-53
2023/12/30 07:47:25;;;;;;;8.88;1.58;;;7.00;99.90;;;;;;5033404;28;20401;-52
2023/12/30 07:49:51;;;;;;;4.05;0.77;;;7.00;99.90;;;;;;5036626;28;20374;-52
2023/12/30 07:52:17;;;;;;;7.05;1.10;;;7.10;99.90;;;;;;5033912;28;20031;-55
2023/12/30 07:54:42;;;;;;;6.70;1.33;;;7.10;99.90;;;;;;5035976;28;20031;-53
2023/12/30 07:57:08;;;;;;;9.68;0.98;;;7.00;99.90;;;;;;5036037;28;20030;-54
2023/12/30 07:59:33;;;;;;;7.68;0.90;;;7.00;99.90;;;;;;5036501;28;20026;-54
2023/12/30 08:01:59;;;;;;;7.43;1.65;;;7.00;99.90;;;;;;5035908;28;20113;-47
2023/12/30 08:04:25;;;;;;;8.98;0.50;;;7.00;99.90;;;;;;5035867;28;20025;-54
2023/12/30 08:06:51;;;;;;;5.90;1.48;;;6.90;99.90;;;;;;5035047;28;20080;-54
2023/12/30 08:09:17;;;;;;;5.47;1.23;;;7.00;99.90;;;;;;5035946;28;20022;-54
2023/12/30 08:11:43;;;;;;;6.75;1.38;;;7.00;99.90;;;;;;5034070;28;20026;-54
2023/12/30 08:14:09;;;;;;;9.55;0.98;;;7.00;99.90;;;;;;5033630;28;20028;-52
2023/12/30 08:16:36;;;;;;;8.43;1.40;;;7.00;99.90;;;;;;5035456;28;20065;-52
2023/12/30 08:19:05;;;;;;;14.98;1.02;;;6.90;99.90;;;;;;5035645;28;20033;-53
2023/12/30 08:21:31;;;;;;;9.43;0.90;;;7.00;99.90;;;;;;5035304;28;20037;-56
2023/12/30 08:23:58;;;;;;;6.07;1.10;;;7.00;99.90;;;;;;5036054;28;20029;-54
2023/12/30 08:26:27;;;;;;;10.52;1.63;;;7.00;99.90;;;;;;5035846;28;20485;-54
2023/12/30 08:28:54;;;;;;;8.30;1.13;;;7.00;99.90;;;;;;5035284;28;20514;-54
2023/12/30 08:31:21;;;;;;;5.43;1.30;;;7.00;99.90;;;;;;5034642;28;20539;-54
2023/12/30 08:33:47;;;;;;;5.10;1.27;;;7.00;99.90;;;;;;5035148;28;20029;-54
2023/12/30 08:36:13;;;;;;;9.77;0.68;;;7.10;99.90;;;;;;5034670;28;20036;-53
2023/12/30 08:38:38;;;;;;;4.18;0.60;;;7.10;99.90;;;;;;5035717;28;20018;-55
2023/12/30 08:41:05;;;;;;;12.07;1.48;;;7.10;99.90;;;;;;5035043;28;20049;-53
2023/12/30 08:43:30;;;;;;;6.72;1.35;;;7.10;99.90;;;;;;5034271;28;20486;-53
2023/12/30 08:45:56;;;;;;;15.43;1.73;;;7.20;99.90;;;;;;5035172;28;20028;-53
2023/12/30 08:48:22;;;;;;;4.63;1.67;;;7.10;99.90;;;;;;5034754;28;20022;-40
2023/12/30 08:50:48;;;;;;;13.93;1.30;;;7.20;99.90;;;;;;5031790;28;20037;-42
2023/12/30 08:53:14;;;;;;;3.72;0.88;;;7.20;99.90;;;;;;5033846;28;20019;-41
2023/12/30 08:55:41;;;;;;;12.52;1.75;;;7.30;99.90;;;;;;5035383;28;20026;-43
2023/12/30 08:58:07;;;;;;;7.85;1.13;;;7.30;99.90;;;;;;5034199;28;20478;-43
2023/12/30 09:00:33;;;;;;;5.82;1.20;;;7.30;99.90;;;;;;5034826;28;20029;-41
2023/12/30 09:02:59;;;;;;;12.55;1.20;;;7.30;99.90;;;;;;5034520;28;20041;-43
2023/12/30 09:05:25;;;;;;;6.97;1.60;;;7.40;99.90;;;;;;5034996;28;20013;-40
2023/12/30 09:07:51;;;;;;;17.90;2.30;;;7.40;99.90;;;;;;5023600;28;20013;-40
2023/12/30 09:10:17;;;;;;;6.13;1.10;;;7.50;99.90;;;;;;5035112;28;20032;-40
2023/12/30 09:12:46;;;;;;;11.02;1.27;;;7.60;99.90;;;;;;5033703;28;20029;-43
2023/12/30 09:15:12;;;;;;;17.13;1.88;;;7.70;99.90;;;;;;5034940;28;20021;-42
2023/12/30 09:17:38;;;;;;;10.73;1.38;;;7.70;99.90;;;;;;5032962;28;20187;-43
2023/12/30 09:20:04;;;;;;;16.15;1.60;;;7.70;99.90;;;;;;5029237;28;20060;-42
2023/12/30 09:22:30;;;;;;;12.27;1.00;;;7.80;99.90;;;;;;5029069;28;20521;-42
2023/12/30 09:24:55;;;;;;;16.05;2.05;;;7.80;99.90;;;;;;5032841;28;20022;-41
2023/12/30 09:27:24;;;;;;;7.53;1.55;;;7.80;99.90;;;;;;5039773;28;20044;-41
2023/12/30 09:29:50;;;;;;;7.68;1.20;;;7.90;99.90;;;;;;5026928;28;20025;-41
2023/12/30 09:32:15;;;;;;;11.60;1.25;;;8.00;99.90;;;;;;5034374;28;20386;-39
2023/12/30 09:34:41;;;;;;;18.65;1.90;;;8.00;99.90;;;;;;5034312;28;20018;-40
2023/12/30 09:37:07;;;;;;;8.10;1.70;;;8.10;99.90;;;;;;5034324;28;20026;-42
2023/12/30 09:39:32;;;;;;;4.55;0.75;;;8.20;99.90;;;;;;5034159;28;20021;-41
2023/12/30 09:41:58;;;;;;;9.52;1.35;;;8.20;99.90;;;;;;5035953;28;20477;-54
2023/12/30 09:44:25;;;;;;;4.10;1.10;;;8.20;99.90;;;;;;5034376;28;20470;-54
2023/12/30 09:46:52;;;;;;;7.78;2.03;;;8.30;99.90;;;;;;5032855;28;20017;-48
2023/12/30 09:49:20;;;;;;;9.38;1.90;;;8.30;99.90;;;;;;5029732;28;20112;-54
2023/12/30 09:51:46;;;;;;;12.38;1.73;;;8.40;99.90;;;;;;5018203;28;20470;-54
2023/12/30 09:54:12;;;;;;;7.03;1.25;;;8.40;99.90;;;;;;5022055;28;20055;-52
2023/12/30 09:56:40;;;;;;;7.25;1.58;;;8.40;99.90;;;;;;5033678;28;20482;-52
2023/12/30 09:59:06;;;;;;;7.85;1.23;;;8.40;99.90;;;;;;5033882;28;20503;-54
2023/12/30 10:01:33;;;;;;;6.97;1.73;;;8.40;99.90;;;;;;5030513;28;20104;-52
2023/12/30 10:03:58;;;;;;;3.60;1.83;;;8.40;99.90;;;;;;5029948;28;20025;-53
2023/12/30 10:06:25;;;;;;;9.00;1.90;;;8.30;99.90;;;;;;5033040;28;20394;-52
2023/12/30 10:08:51;;;;;;;14.27;1.08;;;8.40;99.90;;;;;;5022762;28;20474;-54
2023/12/30 10:11:17;;;;;;;10.32;1.25;;;8.50;99.90;;;;;;5025001;28;20025;-52
2023/12/30 10:13:43;;;;;;;17.65;2.33;;;8.50;99.90;;;;;;5019501;28;20457;-54
2023/12/30 10:16:09;;;;;;;5.43;2.03;;;8.50;99.90;;;;;;5015213;28;20033;-53
2023/12/30 10:18:39;;;;;;;9.30;1.42;;;8.60;99.90;;;;;;5032991;28;20021;-53
2023/12/30 10:21:06;;;;;;;4.80;1.08;;;8.70;99.90;;;;;;5033504;28;20493;-53
2023/12/30 10:23:33;;;;;;;5.47;1.95;;;8.80;99.90;;;;;;5029246;28;20533;-54
2023/12/30 10:25:59;;;;;;;5.05;1.00;;;8.80;99.90;;;;;;5026952;28;20017;-54
2023/12/30 10:28:25;;;;;;;14.20;1.77;;;8.90;99.90;;;;;;5032165;28;20497;-50
2023/12/30 10:31:05;;;;;;;4.00;1.00;;;8.90;99.90;;;;;;5031987;28;20037;-54
2023/12/30 10:33:31;;;;;;;11.20;1.95;;;9.00;99.90;;;;;;5024399;28;20413;-53
2023/12/30 10:35:57;;;;;;;11.90;2.08;;;9.00;99.90;;;;;;5034882;28;20485;-53
2023/12/30 10:38:23;;;;;;;3.55;0.88;;;9.00;99.90;;;;;;5030656;28;20083;-54
2023/12/30 10:40:52;;;;;;;13.13;2.05;;;9.00;99.90;;;;;;5031235;28;20029;-53
2023/12/30 10:43:21;;;;;;;14.98;1.70;;;9.10;99.90;;;;;;5031705;28;20485;-54
2023/12/30 10:45:59;;;;;;;5.55;1.35;;;9.10;99.90;;;;;;5031505;28;20048;-53
2023/12/30 10:48:31;;;;;;;;;;;9.10;99.90;;;;;;5015975;28;20024;-55
2023/12/30 10:50:59;;;;;;;9.00;2.05;;;9.10;99.90;;;;;;5032938;28;19908;-54
2023/12/30 10:53:38;;;;;;;16.90;1.83;;;9.10;99.90;;;;;;5024847;28;20058;-53
2023/12/30 10:56:06;;;;;;;8.18;1.52;;;9.20;99.90;;;;;;5018259;28;20036;-53
2023/12/30 10:58:35;;;;;;;9.73;2.10;;;9.20;99.90;;;;;;5031865;28;20079;-54
2023/12/30 11:01:02;;;;;;;8.98;1.77;;;9.20;99.90;;;;;;5032661;28;20033;-52
2023/12/30 11:03:31;;;;;;;7.57;2.30;;;9.20;99.90;;;;;;5031863;28;20038;-54
2023/12/30 11:06:44;;;;;;;13.82;1.63;;;9.10;99.90;;;;;;5031460;28;20029;-53
2023/12/30 11:09:13;;;;;;;25.17;1.90;;;9.20;99.90;;;;;;5020664;28;20402;-53
2023/12/30 11:11:52;;;;;;;10.82;1.17;;;9.30;99.90;;;;;;5032099;28;20025;-54
2023/12/30 11:14:20;;;;;;;6.50;1.70;;;9.30;99.90;;;;;;5021079;28;20108;-53
2023/12/30 11:16:46;;;;;;;14.30;2.33;;;9.40;99.90;;;;;;5016706;28;20140;-52
2023/12/30 11:19:28;;;;;;;14.07;2.33;;;9.40;99.90;;;;;;5025115;28;20033;-55
2023/12/30 11:21:59;;;;;;;19.00;1.75;;;9.50;99.90;;;;;;5030812;28;20411;-54
2023/12/30 11:24:26;;;;;;;14.55;2.28;;;9.60;99.90;;;;;;5032029;28;20100;-55
2023/12/30 11:26:53;;;;;;;3.90;1.92;;;9.60;99.90;;;;;;5031873;28;20013;-55
2023/12/30 11:29:24;;;;;;;8.40;1.85;;;9.70;99.90;;;;;;5033550;28;20029;-54
2023/12/30 11:31:52;;;;;;;12.65;2.33;;;9.80;99.90;;;;;;5024430;28;20117;-54
2023/12/30 11:34:19;;;;;;;9.77;2.23;;;9.70;99.90;;;;;;5031848;28;20512;-54
2023/12/30 11:36:51;;;;;;;11.63;2.20;;;9.70;99.90;;;;;;5032011;28;20102;-55
2023/12/30 11:39:25;;;;;;;13.77;2.10;;;9.70;99.90;;;;;;5032162;28;20092;-53
2023/12/30 11:41:53;;;;;;;16.15;2.65;;;9.80;99.90;;;;;;5032013;28;20026;-55
2023/12/30 11:44:19;;;;;;;13.27;4.53;;;9.80;99.90;;;;;;5031582;28;20056;-48
2023/12/30 11:46:45;;;;;;;11.98;3.40;;;9.90;99.90;;;;;;5032037;28;20791;-61
2023/12/30 11:49:17;;;;;;;14.60;3.00;;;10.00;99.90;;;;;;5032265;28;20488;-55
2023/12/30 11:51:43;;;;;;;20.67;3.15;;;10.00;99.90;;;;;;5027771;28;20540;-52
2023/12/30 11:54:08;;;;;;;13.00;2.63;;;10.00;99.90;;;;;;5028646;28;20022;-51
2023/12/30 11:56:34;;;;;;;9.13;3.13;;;10.00;99.90;;;;;;5031201;28;20474;-50
2023/12/30 11:59:00;;;;;;;23.05;4.80;;;10.00;99.90;;;;;;5033515;28;20107;-54
2023/12/30 12:01:26;;;;;;;14.93;3.90;;;10.10;99.90;;;;;;5032162;28;20022;-54
2023/12/30 12:03:52;;;;;;;10.63;4.55;;;10.10;99.90;;;;;;5031840;28;20017;-54
2023/12/30 12:06:18;;;;;;;11.50;3.35;;;10.10;99.90;;;;;;5029887;28;20107;-55
2023/12/30 12:08:44;;;;;;;26.30;4.43;;;10.10;99.90;;;;;;5031072;28;20485;-52
2023/12/30 12:11:09;;;;;;;18.40;3.83;;;10.10;99.90;;;;;;5030375;28;20025;-49
2023/12/30 12:13:35;;;;;;;13.85;4.30;;;10.10;99.90;;;;;;5031079;28;20033;-54
2023/12/30 12:16:04;;;;;;;12.25;4.05;;;10.10;99.90;;;;;;5027448;28;20038;-55
2023/12/30 12:18:30;;;;;;;12.50;3.78;;;10.00;99.90;;;;;;5030102;28;20073;-56
2023/12/30 12:20:56;;;;;;;7.95;3.58;;;10.10;99.90;;;;;;5029155;28;20485;-53
2023/12/30 12:23:24;;;;;;;13.88;4.22;;;10.10;99.90;;;;;;5031709;28;20029;-53
2023/12/30 12:25:51;;;;;;;12.93;3.97;;;10.00;99.90;;;;;;5031262;28;20510;-54
2023/12/30 12:28:20;;;;;;;12.68;4.82;;;10.10;99.90;;;;;;5031890;28;20521;-52
2023/12/30 12:30:46;;;;;;;17.83;5.22;;;10.00;99.90;;;;;;5029151;28;20083;-49
2023/12/30 12:33:13;;;;;;;21.40;5.72;;;10.00;99.90;;;;;;5030465;28;20475;-52
2023/12/30 12:35:39;;;;;;;17.15;5.78;;;10.00;99.90;;;;;;5034731;28;20501;-54
2023/12/30 12:38:05;;;;;;;16.15;5.85;;;10.00;99.90;;;;;;5034709;28;20029;-52
2023/12/30 12:40:32;;;;;;;11.27;5.85;;;10.00;99.90;;;;;;5031556;28;20455;-54
2023/12/30 12:42:58;;;;;;;15.90;5.63;;;10.10;99.90;;;;;;5034048;28;20493;-54
2023/12/30 12:45:24;;;;;;;17.27;7.03;;;10.10;99.90;;;;;;5034091;28;20381;-55
2023/12/30 12:47:50;;;;;;;16.30;5.60;;;10.10;99.90;;;;;;5033422;28;20105;-54